sensor_id;sensor_type;location;lat;lon;timestamp;pressure;altitude;pressure_sealevel;temperature;humidity
16331;BME280;8275;48.206;16.340;2023-07-13T00:01:31;98925.06;;;26.51;46.92
16331;BME280;8275;48.206;16.340;2023-07-13T00:04:01;98934.69;;;26.50;47.26
16331;BME280;8275;48.206;16.340;2023-07-13T00:06:31;98947.13;;;26.49;46.94
16331;BME280;8275;48.206;16.340;2023-07-13T00:09:00;98933.88;;;26.50;47.12
16331;BME280;8275;48.206;16.340;2023-07-13T00:11:29;98914.56;;;26.48;46.90
16331;BME280;8275;48.206;16.340;2023-07-13T00:13:58;98914.56;;;26.48;47.10
16331;BME280;8275;48.206;16.340;2023-07-13T00:16:27;98906.53;;;26.46;46.90
16331;BME280;8275;48.206;16.340;2023-07-13T00:18:55;98899.25;;;26.45;47.10
16331;BME280;8275;48.206;16.340;2023-07-13T00:21:24;98899.22;;;26.42;46.83
16331;BME280;8275;48.206;16.340;2023-07-13T00:23:54;98892.72;;;26.38;47.31
16331;BME280;8275;48.206;16.340;2023-07-13T00:26:23;98888.66;;;26.35;47.12
16331;BME280;8275;48.206;16.340;2023-07-13T00:28:51;98890.19;;;26.33;46.87
16331;BME280;8275;48.206;16.340;2023-07-13T00:31:20;98884.47;;;26.29;46.96
16331;BME280;8275;48.206;16.340;2023-07-13T00:33:48;98886.50;;;26.29;47.21
16331;BME280;8275;48.206;16.340;2023-07-13T00:36:17;98879.63;;;26.26;47.15
16331;BME280;8275;48.206;16.340;2023-07-13T00:38:46;98880.78;;;26.25;46.95
16331;BME280;8275;48.206;16.340;2023-07-13T00:41:17;98871.94;;;26.23;47.10
16331;BME280;8275;48.206;16.340;2023-07-13T00:43:45;98874.34;;;26.25;46.97
16331;BME280;8275;48.206;16.340;2023-07-13T00:46:23;98879.09;;;26.21;46.75
16331;BME280;8275;48.206;16.340;2023-07-13T00:48:53;98882.00;;;26.24;46.95
16331;BME280;8275;48.206;16.340;2023-07-13T00:51:30;98868.31;;;26.23;46.73
16331;BME280;8275;48.206;16.340;2023-07-13T00:54:07;98861.09;;;26.22;46.54
16331;BME280;8275;48.206;16.340;2023-07-13T00:56:40;98844.66;;;26.24;46.48
16331;BME280;8275;48.206;16.340;2023-07-13T00:59:11;98844.66;;;26.24;46.75
16331;BME280;8275;48.206;16.340;2023-07-13T01:01:41;98840.31;;;26.26;46.34
16331;BME280;8275;48.206;16.340;2023-07-13T01:04:10;98834.31;;;26.28;46.45
16331;BME280;8275;48.206;16.340;2023-07-13T01:06:40;98822.69;;;26.29;46.36
16331;BME280;8275;48.206;16.340;2023-07-13T01:09:12;98811.16;;;26.34;45.91
16331;BME280;8275;48.206;16.340;2023-07-13T01:11:42;98815.66;;;26.39;45.79
16331;BME280;8275;48.206;16.340;2023-07-13T01:14:12;98810.97;;;26.43;45.28
16331;BME280;8275;48.206;16.340;2023-07-13T01:16:44;98816.25;;;26.48;44.56
16331;BME280;8275;48.206;16.340;2023-07-13T01:19:29;98815.50;;;26.51;44.67
16331;BME280;8275;48.206;16.340;2023-07-13T01:22:08;98805.22;;;26.59;44.32
16331;BME280;8275;48.206;16.340;2023-07-13T01:24:41;98808.91;;;26.63;43.75
16331;BME280;8275;48.206;16.340;2023-07-13T01:27:13;98818.22;;;26.67;43.92
16331;BME280;8275;48.206;16.340;2023-07-13T01:29:44;98805.84;;;26.71;43.80
16331;BME280;8275;48.206;16.340;2023-07-13T01:32:18;98797.97;;;26.77;43.28
16331;BME280;8275;48.206;16.340;2023-07-13T01:34:51;98802.47;;;26.81;43.48
16331;BME280;8275;48.206;16.340;2023-07-13T01:37:24;98790.47;;;26.84;43.05
16331;BME280;8275;48.206;16.340;2023-07-13T01:39:52;98791.78;;;26.90;42.97
16331;BME280;8275;48.206;16.340;2023-07-13T01:42:21;98789.81;;;26.94;42.58
16331;BME280;8275;48.206;16.340;2023-07-13T01:44:49;98794.31;;;26.99;42.60
16331;BME280;8275;48.206;16.340;2023-07-13T01:47:18;98783.56;;;27.04;42.21
16331;BME280;8275;48.206;16.340;2023-07-13T01:49:47;98769.63;;;27.11;41.81
16331;BME280;8275;48.206;16.340;2023-07-13T01:52:15;98763.31;;;27.18;41.43
16331;BME280;8275;48.206;16.340;2023-07-13T01:54:45;98761.34;;;27.22;41.25
16331;BME280;8275;48.206;16.340;2023-07-13T01:57:14;98762.66;;;27.28;41.51
16331;BME280;8275;48.206;16.340;2023-07-13T01:59:42;98761.53;;;27.33;40.81
16331;BME280;8275;48.206;16.340;2023-07-13T02:02:11;98779.34;;;27.40;41.34
16331;BME280;8275;48.206;16.340;2023-07-13T02:04:40;98785.88;;;27.48;41.01
16331;BME280;8275;48.206;16.340;2023-07-13T02:07:09;98791.22;;;27.56;41.29
16331;BME280;8275;48.206;16.340;2023-07-13T02:09:37;98786.09;;;27.62;41.32
16331;BME280;8275;48.206;16.340;2023-07-13T02:12:08;98792.56;;;27.66;40.72
16331;BME280;8275;48.206;16.340;2023-07-13T02:14:37;98789.44;;;27.71;40.88
16331;BME280;8275;48.206;16.340;2023-07-13T02:17:06;98790.72;;;27.77;40.98
16331;BME280;8275;48.206;16.340;2023-07-13T02:19:34;98810.09;;;27.82;41.03
16331;BME280;8275;48.206;16.340;2023-07-13T02:22:04;98818.59;;;27.86;41.01
16331;BME280;8275;48.206;16.340;2023-07-13T02:24:32;98824.25;;;27.89;40.64
16331;BME280;8275;48.206;16.340;2023-07-13T02:27:01;98848.47;;;27.94;40.66
16331;BME280;8275;48.206;16.340;2023-07-13T02:29:31;98869.03;;;27.98;40.69
16331;BME280;8275;48.206;16.340;2023-07-13T02:32:00;98868.72;;;28.03;41.04
16331;BME280;8275;48.206;16.340;2023-07-13T02:34:28;98866.75;;;28.07;41.26
16331;BME280;8275;48.206;16.340;2023-07-13T02:36:59;98898.63;;;28.11;41.10
16331;BME280;8275;48.206;16.340;2023-07-13T02:39:28;98915.94;;;28.13;40.70
16331;BME280;8275;48.206;16.340;2023-07-13T02:41:56;98911.56;;;28.15;40.74
16331;BME280;8275;48.206;16.340;2023-07-13T02:44:25;98924.06;;;28.18;40.72
16331;BME280;8275;48.206;16.340;2023-07-13T02:46:55;98941.78;;;28.18;41.29
16331;BME280;8275;48.206;16.340;2023-07-13T02:49:23;98950.22;;;28.18;40.96
16331;BME280;8275;48.206;16.340;2023-07-13T02:51:52;98964.69;;;28.17;41.32
16331;BME280;8275;48.206;16.340;2023-07-13T02:54:20;98965.41;;;28.10;41.46
16331;BME280;8275;48.206;16.340;2023-07-13T02:56:49;98985.41;;;28.02;42.18
16331;BME280;8275;48.206;16.340;2023-07-13T02:59:18;98996.84;;;27.90;42.51
16331;BME280;8275;48.206;16.340;2023-07-13T03:01:46;99011.50;;;27.76;42.97
16331;BME280;8275;48.206;16.340;2023-07-13T03:04:16;99018.44;;;27.59;44.11
16331;BME280;8275;48.206;16.340;2023-07-13T03:06:47;99027.28;;;27.39;44.34
16331;BME280;8275;48.206;16.340;2023-07-13T03:09:15;99024.47;;;27.20;45.33
16331;BME280;8275;48.206;16.340;2023-07-13T03:11:44;99036.09;;;26.99;45.99
16331;BME280;8275;48.206;16.340;2023-07-13T03:14:12;99032.13;;;26.81;46.78
16331;BME280;8275;48.206;16.340;2023-07-13T03:16:41;99042.13;;;26.63;47.92
16331;BME280;8275;48.206;16.340;2023-07-13T03:19:09;99032.06;;;26.42;48.58
16331;BME280;8275;48.206;16.340;2023-07-13T03:21:39;99040.03;;;26.25;49.21
16331;BME280;8275;48.206;16.340;2023-07-13T03:24:08;99040.41;;;26.08;49.71
16331;BME280;8275;48.206;16.340;2023-07-13T03:26:36;99034.81;;;25.92;50.64
16331;BME280;8275;48.206;16.340;2023-07-13T03:29:05;99037.28;;;25.78;51.73
16331;BME280;8275;48.206;16.340;2023-07-13T03:31:36;99033.19;;;25.60;52.28
16331;BME280;8275;48.206;16.340;2023-07-13T03:34:05;99033.97;;;25.45;52.76
16331;BME280;8275;48.206;16.340;2023-07-13T03:36:34;99024.81;;;25.32;53.42
16331;BME280;8275;48.206;16.340;2023-07-13T03:39:04;99028.50;;;25.21;54.11
16331;BME280;8275;48.206;16.340;2023-07-13T03:41:36;99030.28;;;25.13;54.88
16331;BME280;8275;48.206;16.340;2023-07-13T03:44:04;99038.94;;;25.08;55.68
16331;BME280;8275;48.206;16.340;2023-07-13T03:46:34;99041.66;;;25.04;56.42
16331;BME280;8275;48.206;16.340;2023-07-13T03:49:04;99039.47;;;24.98;56.50
16331;BME280;8275;48.206;16.340;2023-07-13T03:51:33;99054.53;;;24.93;56.90
16331;BME280;8275;48.206;16.340;2023-07-13T03:54:02;99032.38;;;24.88;57.42
16331;BME280;8275;48.206;16.340;2023-07-13T03:56:32;99047.09;;;24.85;57.83
16331;BME280;8275;48.206;16.340;2023-07-13T03:59:01;99045.81;;;24.83;58.42
16331;BME280;8275;48.206;16.340;2023-07-13T04:01:30;99051.34;;;24.79;58.57
16331;BME280;8275;48.206;16.340;2023-07-13T04:03:59;99045.94;;;24.74;58.96
16331;BME280;8275;48.206;16.340;2023-07-13T04:06:30;99053.78;;;24.69;59.25
16331;BME280;8275;48.206;16.340;2023-07-13T04:09:01;99056.81;;;24.64;59.60
16331;BME280;8275;48.206;16.340;2023-07-13T04:11:33;99053.09;;;24.60;60.08
16331;BME280;8275;48.206;16.340;2023-07-13T04:14:04;99057.88;;;24.59;60.65
16331;BME280;8275;48.206;16.340;2023-07-13T04:16:33;99061.88;;;24.58;60.92
16331;BME280;8275;48.206;16.340;2023-07-13T04:19:02;99064.66;;;24.58;61.73
16331;BME280;8275;48.206;16.340;2023-07-13T04:21:31;99048.19;;;24.57;61.73
16331;BME280;8275;48.206;16.340;2023-07-13T04:24:01;99038.63;;;24.58;61.91
16331;BME280;8275;48.206;16.340;2023-07-13T04:26:32;99028.50;;;24.53;61.72
16331;BME280;8275;48.206;16.340;2023-07-13T04:29:03;99016.25;;;24.46;61.98
16331;BME280;8275;48.206;16.340;2023-07-13T04:31:32;99007.63;;;24.38;61.83
16331;BME280;8275;48.206;16.340;2023-07-13T04:34:01;98999.00;;;24.31;62.17
16331;BME280;8275;48.206;16.340;2023-07-13T04:36:30;98999.28;;;24.26;62.61
16331;BME280;8275;48.206;16.340;2023-07-13T04:38:58;98998.78;;;24.24;63.01
16331;BME280;8275;48.206;16.340;2023-07-13T04:41:27;99002.78;;;24.23;63.33
16331;BME280;8275;48.206;16.340;2023-07-13T04:43:57;98995.19;;;24.24;63.67
16331;BME280;8275;48.206;16.340;2023-07-13T04:46:26;98980.47;;;24.27;63.70
16331;BME280;8275;48.206;16.340;2023-07-13T04:48:54;98971.84;;;24.32;63.95
16331;BME280;8275;48.206;16.340;2023-07-13T04:51:24;98967.53;;;24.34;63.59
16331;BME280;8275;48.206;16.340;2023-07-13T04:53:53;98964.03;;;24.37;63.80
16331;BME280;8275;48.206;16.340;2023-07-13T04:56:27;98950.56;;;24.43;64.21
16331;BME280;8275;48.206;16.340;2023-07-13T04:58:58;98950.31;;;24.48;64.21
16331;BME280;8275;48.206;16.340;2023-07-13T05:01:27;98938.50;;;24.55;64.14
16331;BME280;8275;48.206;16.340;2023-07-13T05:03:56;98937.09;;;24.61;64.34
16331;BME280;8275;48.206;16.340;2023-07-13T05:06:26;98933.69;;;24.67;64.66
16331;BME280;8275;48.206;16.340;2023-07-13T05:08:55;98928.28;;;24.74;65.09
16331;BME280;8275;48.206;16.340;2023-07-13T05:11:24;98944.50;;;24.81;65.08
16331;BME280;8275;48.206;16.340;2023-07-13T05:13:52;98929.03;;;24.87;64.81
16331;BME280;8275;48.206;16.340;2023-07-13T05:16:22;98920.31;;;24.88;64.43
16331;BME280;8275;48.206;16.340;2023-07-13T05:18:51;98923.56;;;24.90;64.01
16331;BME280;8275;48.206;16.340;2023-07-13T05:21:20;98911.59;;;24.93;63.52
16331;BME280;8275;48.206;16.340;2023-07-13T05:23:48;98910.91;;;24.96;63.09
16331;BME280;8275;48.206;16.340;2023-07-13T05:26:17;98919.41;;;25.00;62.89
16331;BME280;8275;48.206;16.340;2023-07-13T05:28:46;98909.56;;;25.06;62.65
16331;BME280;8275;48.206;16.340;2023-07-13T05:31:15;98916.63;;;25.16;62.79
16331;BME280;8275;48.206;16.340;2023-07-13T05:33:44;98923.22;;;25.23;61.97
16331;BME280;8275;48.206;16.340;2023-07-13T05:36:13;98928.66;;;25.32;62.04
16331;BME280;8275;48.206;16.340;2023-07-13T05:38:41;98936.44;;;25.38;61.97
16331;BME280;8275;48.206;16.340;2023-07-13T05:41:10;98939.44;;;25.45;62.08
16331;BME280;8275;48.206;16.340;2023-07-13T05:43:39;98942.06;;;25.54;62.04
16331;BME280;8275;48.206;16.340;2023-07-13T05:46:08;98953.47;;;25.61;61.87
16331;BME280;8275;48.206;16.340;2023-07-13T05:48:36;98951.19;;;25.66;60.65
16331;BME280;8275;48.206;16.340;2023-07-13T05:51:06;98949.66;;;25.69;60.30
16331;BME280;8275;48.206;16.340;2023-07-13T05:53:35;98948.13;;;25.71;59.68
16331;BME280;8275;48.206;16.340;2023-07-13T05:56:04;98958.16;;;25.72;59.14
16331;BME280;8275;48.206;16.340;2023-07-13T05:58:33;98956.16;;;25.73;59.43
16331;BME280;8275;48.206;16.340;2023-07-13T06:01:05;98958.97;;;25.73;58.66
16331;BME280;8275;48.206;16.340;2023-07-13T06:03:35;98972.19;;;25.72;57.92
16331;BME280;8275;48.206;16.340;2023-07-13T06:06:07;98969.19;;;25.65;56.84
16331;BME280;8275;48.206;16.340;2023-07-13T06:08:36;98974.72;;;25.62;56.93
16331;BME280;8275;48.206;16.340;2023-07-13T06:11:07;98979.41;;;25.58;56.93
16331;BME280;8275;48.206;16.340;2023-07-13T06:13:36;98987.03;;;25.57;56.85
16331;BME280;8275;48.206;16.340;2023-07-13T06:16:06;98983.78;;;25.55;56.38
16331;BME280;8275;48.206;16.340;2023-07-13T06:18:37;98991.00;;;25.56;56.57
16331;BME280;8275;48.206;16.340;2023-07-13T06:21:13;98998.59;;;25.56;56.09
16331;BME280;8275;48.206;16.340;2023-07-13T06:23:42;99006.31;;;25.59;56.15
16331;BME280;8275;48.206;16.340;2023-07-13T06:26:12;99008.41;;;25.62;56.23
16331;BME280;8275;48.206;16.340;2023-07-13T06:28:40;99018.44;;;25.63;56.40
16331;BME280;8275;48.206;16.340;2023-07-13T06:31:11;99014.09;;;25.65;56.42
16331;BME280;8275;48.206;16.340;2023-07-13T06:33:40;99029.84;;;25.70;56.47
16331;BME280;8275;48.206;16.340;2023-07-13T06:36:10;99028.31;;;25.72;56.56
16331;BME280;8275;48.206;16.340;2023-07-13T06:38:39;99035.63;;;25.77;56.52
16331;BME280;8275;48.206;16.340;2023-07-13T06:41:08;99029.75;;;25.82;56.53
16331;BME280;8275;48.206;16.340;2023-07-13T06:43:37;99049.59;;;25.89;56.08
16331;BME280;8275;48.206;16.340;2023-07-13T06:46:06;99046.50;;;25.94;56.05
16331;BME280;8275;48.206;16.340;2023-07-13T06:48:35;99039.88;;;26.02;55.97
16331;BME280;8275;48.206;16.340;2023-07-13T06:51:04;99046.97;;;26.12;55.80
16331;BME280;8275;48.206;16.340;2023-07-13T06:53:34;99044.50;;;26.26;55.79
16331;BME280;8275;48.206;16.340;2023-07-13T06:56:03;99042.75;;;26.37;55.25
16331;BME280;8275;48.206;16.340;2023-07-13T06:58:34;99047.81;;;26.47;55.07
16331;BME280;8275;48.206;16.340;2023-07-13T07:01:03;99045.16;;;26.54;54.84
16331;BME280;8275;48.206;16.340;2023-07-13T07:03:34;99050.13;;;26.61;54.31
16331;BME280;8275;48.206;16.340;2023-07-13T07:06:12;99038.22;;;26.67;54.43
16331;BME280;8275;48.206;16.340;2023-07-13T07:08:43;99027.69;;;26.80;54.47
16331;BME280;8275;48.206;16.340;2023-07-13T07:11:14;99027.09;;;26.90;54.10
16331;BME280;8275;48.206;16.340;2023-07-13T07:13:43;99031.31;;;26.99;54.19
16331;BME280;8275;48.206;16.340;2023-07-13T07:16:11;99044.25;;;27.04;53.63
16331;BME280;8275;48.206;16.340;2023-07-13T07:18:40;99046.34;;;27.07;53.01
16331;BME280;8275;48.206;16.340;2023-07-13T07:21:09;99043.81;;;27.02;50.46
16331;BME280;8275;48.206;16.340;2023-07-13T07:23:38;99038.47;;;26.97;50.88
16331;BME280;8275;48.206;16.340;2023-07-13T07:26:08;99041.66;;;26.95;51.02
16331;BME280;8275;48.206;16.340;2023-07-13T07:28:37;99043.72;;;26.98;51.16
16331;BME280;8275;48.206;16.340;2023-07-13T07:31:10;99044.25;;;27.04;51.17
16331;BME280;8275;48.206;16.340;2023-07-13T07:33:41;99043.56;;;27.10;50.28
16331;BME280;8275;48.206;16.340;2023-07-13T07:36:10;99046.47;;;27.14;50.00
16331;BME280;8275;48.206;16.340;2023-07-13T07:38:43;99034.53;;;27.21;50.21
16331;BME280;8275;48.206;16.340;2023-07-13T07:41:13;99034.59;;;27.24;49.96
16331;BME280;8275;48.206;16.340;2023-07-13T07:43:44;99043.19;;;27.31;50.40
16331;BME280;8275;48.206;16.340;2023-07-13T07:46:13;99050.63;;;27.39;50.40
16331;BME280;8275;48.206;16.340;2023-07-13T07:48:42;99055.19;;;27.47;49.79
16331;BME280;8275;48.206;16.340;2023-07-13T07:51:11;99054.50;;;27.54;49.26
16331;BME280;8275;48.206;16.340;2023-07-13T07:53:39;99052.19;;;27.59;49.96
16331;BME280;8275;48.206;16.340;2023-07-13T07:56:08;99050.69;;;27.65;49.68
16331;BME280;8275;48.206;16.340;2023-07-13T07:58:41;99058.13;;;27.77;49.39
16331;BME280;8275;48.206;16.340;2023-07-13T08:01:13;99053.53;;;27.88;48.63
16331;BME280;8275;48.206;16.340;2023-07-13T08:03:44;99066.28;;;28.05;48.57
16331;BME280;8275;48.206;16.340;2023-07-13T08:06:16;99063.78;;;28.22;48.76
16331;BME280;8275;48.206;16.340;2023-07-13T08:08:49;99055.59;;;28.40;48.38
16331;BME280;8275;48.206;16.340;2023-07-13T08:11:20;99051.00;;;28.55;48.01
16331;BME280;8275;48.206;16.340;2023-07-13T08:13:53;99048.84;;;28.71;47.77
16331;BME280;8275;48.206;16.340;2023-07-13T08:16:23;99053.88;;;28.88;46.92
16331;BME280;8275;48.206;16.340;2023-07-13T08:18:52;99053.34;;;29.08;46.99
16331;BME280;8275;48.206;16.340;2023-07-13T08:21:20;99062.09;;;29.30;46.26
16331;BME280;8275;48.206;16.340;2023-07-13T08:23:49;99041.38;;;29.52;46.07
16331;BME280;8275;48.206;16.340;2023-07-13T08:26:18;99041.28;;;29.78;45.60
16331;BME280;8275;48.206;16.340;2023-07-13T08:28:46;99042.72;;;30.05;45.23
16331;BME280;8275;48.206;16.340;2023-07-13T08:31:16;99048.19;;;30.31;43.19
16331;BME280;8275;48.206;16.340;2023-07-13T08:33:47;99058.06;;;30.59;43.57
16331;BME280;8275;48.206;16.340;2023-07-13T08:36:16;99048.56;;;30.88;43.38
16331;BME280;8275;48.206;16.340;2023-07-13T08:38:45;99058.81;;;31.20;43.35
16331;BME280;8275;48.206;16.340;2023-07-13T08:41:16;99060.16;;;31.44;42.07
16331;BME280;8275;48.206;16.340;2023-07-13T08:43:50;99056.97;;;31.56;41.23
16331;BME280;8275;48.206;16.340;2023-07-13T08:46:26;99057.34;;;31.62;40.76
16331;BME280;8275;48.206;16.340;2023-07-13T08:49:00;99058.59;;;31.68;41.07
16331;BME280;8275;48.206;16.340;2023-07-13T08:51:40;99050.50;;;31.63;40.51
16331;BME280;8275;48.206;16.340;2023-07-13T08:54:22;99058.56;;;31.57;40.37
16331;BME280;8275;48.206;16.340;2023-07-13T08:56:53;99061.41;;;31.57;40.01
16331;BME280;8275;48.206;16.340;2023-07-13T08:59:26;99055.72;;;31.57;39.98
16331;BME280;8275;48.206;16.340;2023-07-13T09:02:16;99052.09;;;31.53;39.84
16331;BME280;8275;48.206;16.340;2023-07-13T09:04:54;99068.25;;;31.53;39.47
16331;BME280;8275;48.206;16.340;2023-07-13T09:07:35;99074.31;;;31.48;39.07
16331;BME280;8275;48.206;16.340;2023-07-13T09:10:16;99077.50;;;31.39;39.40
16331;BME280;8275;48.206;16.340;2023-07-13T09:12:57;99088.06;;;31.42;39.15
16331;BME280;8275;48.206;16.340;2023-07-13T09:15:32;99092.94;;;31.49;39.46
16331;BME280;8275;48.206;16.340;2023-07-13T09:18:10;99077.19;;;31.62;39.55
16331;BME280;8275;48.206;16.340;2023-07-13T09:20:46;99067.91;;;31.82;39.66
16331;BME280;8275;48.206;16.340;2023-07-13T09:23:20;99068.78;;;31.97;38.89
16331;BME280;8275;48.206;16.340;2023-07-13T09:25:53;99075.69;;;32.14;38.99
16331;BME280;8275;48.206;16.340;2023-07-13T09:28:25;99073.66;;;32.25;37.63
16331;BME280;8275;48.206;16.340;2023-07-13T09:31:00;99068.34;;;32.30;37.68
16331;BME280;8275;48.206;16.340;2023-07-13T09:33:32;99069.97;;;32.35;37.52
16331;BME280;8275;48.206;16.340;2023-07-13T09:36:20;99062.31;;;32.32;37.91
16331;BME280;8275;48.206;16.340;2023-07-13T09:39:01;99068.78;;;32.36;37.22
16331;BME280;8275;48.206;16.340;2023-07-13T09:41:39;99063.50;;;32.31;36.74
16331;BME280;8275;48.206;16.340;2023-07-13T09:44:11;99061.50;;;32.17;36.29
16331;BME280;8275;48.206;16.340;2023-07-13T09:46:46;99075.28;;;32.05;36.36
16331;BME280;8275;48.206;16.340;2023-07-13T09:49:16;99070.78;;;31.93;36.93
16331;BME280;8275;48.206;16.340;2023-07-13T09:51:45;99070.75;;;31.89;37.71
16331;BME280;8275;48.206;16.340;2023-07-13T09:54:21;99067.09;;;31.89;37.70
16331;BME280;8275;48.206;16.340;2023-07-13T09:56:55;99066.34;;;32.03;37.71
16331;BME280;8275;48.206;16.340;2023-07-13T09:59:29;99063.53;;;32.13;36.77
16331;BME280;8275;48.206;16.340;2023-07-13T10:01:58;99067.19;;;32.28;37.12
16331;BME280;8275;48.206;16.340;2023-07-13T10:04:33;99072.03;;;32.41;37.15
16331;BME280;8275;48.206;16.340;2023-07-13T10:07:07;99068.78;;;32.57;36.62
16331;BME280;8275;48.206;16.340;2023-07-13T10:09:55;99071.97;;;32.70;34.97
16331;BME280;8275;48.206;16.340;2023-07-13T10:12:25;99064.28;;;32.74;35.18
16331;BME280;8275;48.206;16.340;2023-07-13T10:14:57;99066.31;;;32.73;34.67
16331;BME280;8275;48.206;16.340;2023-07-13T10:17:49;99063.50;;;32.66;34.19
16331;BME280;8275;48.206;16.340;2023-07-13T10:20:21;99079.72;;;32.62;35.19
16331;BME280;8275;48.206;16.340;2023-07-13T10:22:54;99080.09;;;32.71;35.19
16331;BME280;8275;48.206;16.340;2023-07-13T10:25:26;99079.28;;;32.78;33.98
16331;BME280;8275;48.206;16.340;2023-07-13T10:28:06;99080.09;;;32.78;34.82
16331;BME280;8275;48.206;16.340;2023-07-13T10:30:41;99084.50;;;32.93;34.54
16331;BME280;8275;48.206;16.340;2023-07-13T10:33:13;99091.00;;;33.01;33.27
16331;BME280;8275;48.206;16.340;2023-07-13T10:35:44;99083.69;;;32.93;33.22
16331;BME280;8275;48.206;16.340;2023-07-13T10:38:19;99093.03;;;32.79;33.00
16331;BME280;8275;48.206;16.340;2023-07-13T10:41:04;99101.19;;;32.74;33.53
16331;BME280;8275;48.206;16.340;2023-07-13T10:43:39;99084.13;;;32.84;34.03
16331;BME280;8275;48.206;16.340;2023-07-13T10:46:14;99096.69;;;33.01;33.87
16331;BME280;8275;48.206;16.340;2023-07-13T10:48:46;99095.75;;;33.25;33.40
16331;BME280;8275;48.206;16.340;2023-07-13T10:51:18;99081.19;;;33.27;31.80
16331;BME280;8275;48.206;16.340;2023-07-13T10:54:18;99075.09;;;33.24;32.45
16331;BME280;8275;48.206;16.340;2023-07-13T10:56:54;99078.66;;;33.43;32.88
16331;BME280;8275;48.206;16.340;2023-07-13T10:59:35;99065.91;;;33.75;33.29
16331;BME280;8275;48.206;16.340;2023-07-13T11:02:15;99063.25;;;34.09;32.38
16331;BME280;8275;48.206;16.340;2023-07-13T11:04:49;99066.16;;;34.50;32.42
16331;BME280;8275;48.206;16.340;2023-07-13T11:07:23;99070.75;;;34.81;30.24
16331;BME280;8275;48.206;16.340;2023-07-13T11:09:55;99074.19;;;34.99;29.27
16331;BME280;8275;48.206;16.340;2023-07-13T11:12:51;99072.53;;;35.05;29.35
16331;BME280;8275;48.206;16.340;2023-07-13T11:15:44;99068.97;;;35.28;29.95
16331;BME280;8275;48.206;16.340;2023-07-13T11:18:24;99075.09;;;35.60;29.21
16331;BME280;8275;48.206;16.340;2023-07-13T11:21:14;99072.63;;;35.89;28.67
16331;BME280;8275;48.206;16.340;2023-07-13T11:24:04;99075.53;;;35.85;26.34
16331;BME280;8275;48.206;16.340;2023-07-13T11:26:52;99085.09;;;35.72;27.51
16331;BME280;8275;48.206;16.340;2023-07-13T11:29:33;99072.84;;;35.75;28.04
16331;BME280;8275;48.206;16.340;2023-07-13T11:32:23;99070.53;;;35.93;27.41
16331;BME280;8275;48.206;16.340;2023-07-13T11:34:54;99073.22;;;36.04;27.33
16331;BME280;8275;48.206;16.340;2023-07-13T11:37:23;99090.13;;;36.18;27.73
16331;BME280;8275;48.206;16.340;2023-07-13T11:39:52;99087.16;;;36.25;27.17
16331;BME280;8275;48.206;16.340;2023-07-13T11:42:23;99082.19;;;36.29;25.65
16331;BME280;8275;48.206;16.340;2023-07-13T11:44:53;99090.13;;;36.18;25.41
16331;BME280;8275;48.206;16.340;2023-07-13T11:47:40;99086.59;;;36.33;26.09
16331;BME280;8275;48.206;16.340;2023-07-13T11:50:19;99077.63;;;36.81;26.70
16331;BME280;8275;48.206;16.340;2023-07-13T11:52:51;99086.56;;;37.46;26.67
16331;BME280;8275;48.206;16.340;2023-07-13T11:55:22;99077.69;;;38.12;25.87
16331;BME280;8275;48.206;16.340;2023-07-13T11:57:57;99066.53;;;38.66;23.60
16331;BME280;8275;48.206;16.340;2023-07-13T12:00:31;99061.09;;;39.00;23.05
16331;BME280;8275;48.206;16.340;2023-07-13T12:03:02;99054.59;;;39.41;22.63
16331;BME280;8275;48.206;16.340;2023-07-13T12:05:32;99066.47;;;39.68;21.83
16331;BME280;8275;48.206;16.340;2023-07-13T12:08:09;99037.34;;;39.94;21.15
16331;BME280;8275;48.206;16.340;2023-07-13T12:10:59;99057.31;;;40.23;20.65
16331;BME280;8275;48.206;16.340;2023-07-13T12:13:29;99040.63;;;40.56;19.92
16331;BME280;8275;48.206;16.340;2023-07-13T12:15:58;99043.72;;;40.96;20.29
16331;BME280;8275;48.206;16.340;2023-07-13T12:18:30;99045.97;;;41.35;19.53
16331;BME280;8275;48.206;16.340;2023-07-13T12:21:01;99050.06;;;41.77;19.46
16331;BME280;8275;48.206;16.340;2023-07-13T12:23:32;99056.63;;;42.09;18.94
16331;BME280;8275;48.206;16.340;2023-07-13T12:26:04;99042.09;;;42.30;17.87
16331;BME280;8275;48.206;16.340;2023-07-13T12:28:37;99044.03;;;42.33;17.61
16331;BME280;8275;48.206;16.340;2023-07-13T12:31:22;99064.81;;;42.28;17.86
16331;BME280;8275;48.206;16.340;2023-07-13T12:33:58;99050.94;;;42.36;18.69
16331;BME280;8275;48.206;16.340;2023-07-13T12:36:30;99065.63;;;42.29;17.44
16331;BME280;8275;48.206;16.340;2023-07-13T12:39:11;99059.97;;;41.76;17.58
16331;BME280;8275;48.206;16.340;2023-07-13T12:41:41;99054.56;;;41.13;18.37
16331;BME280;8275;48.206;16.340;2023-07-13T12:44:17;99060.31;;;40.45;18.86
16331;BME280;8275;48.206;16.340;2023-07-13T12:46:56;99065.44;;;39.74;19.60
16331;BME280;8275;48.206;16.340;2023-07-13T12:49:31;99070.47;;;39.16;19.97
16331;BME280;8275;48.206;16.340;2023-07-13T12:52:17;99067.06;;;38.60;21.10
16331;BME280;8275;48.206;16.340;2023-07-13T12:54:56;99072.88;;;38.25;21.23
16331;BME280;8275;48.206;16.340;2023-07-13T12:57:39;99068.81;;;37.90;21.70
16331;BME280;8275;48.206;16.340;2023-07-13T13:00:26;99048.91;;;37.67;21.80
16331;BME280;8275;48.206;16.340;2023-07-13T13:02:57;99044.44;;;37.66;22.13
16331;BME280;8275;48.206;16.340;2023-07-13T13:05:48;99057.88;;;37.69;21.36
16331;BME280;8275;48.206;16.340;2023-07-13T13:08:18;99042.28;;;37.54;22.15
16331;BME280;8275;48.206;16.340;2023-07-13T13:10:47;99040.19;;;37.38;21.81
16331;BME280;8275;48.206;16.340;2023-07-13T13:13:16;99042.59;;;37.20;22.39
16331;BME280;8275;48.206;16.340;2023-07-13T13:15:46;99032.63;;;37.08;22.81
16331;BME280;8275;48.206;16.340;2023-07-13T13:18:18;99024.94;;;37.05;22.87
16331;BME280;8275;48.206;16.340;2023-07-13T13:20:49;99016.34;;;37.05;23.02
16331;BME280;8275;48.206;16.340;2023-07-13T13:23:20;99011.47;;;37.06;23.01
16331;BME280;8275;48.206;16.340;2023-07-13T13:25:50;99015.50;;;37.08;23.17